Time;durP1;ratioP1;P1;durP2;ratioP2;P2;SDS_P1;SDS_P2;PMS_P1;PMS_P2;Temp;Humidity;BMP_temperature;BMP_pressure;BME280_temperature;BME280_humidity;BME280_pressure;Samples;Min_cycle;Max_cycle;Signal;HPM_P1;HPM_P2
2023/09/18 00:01:00;;;;;;;12.73;6.72;;;15.20;99.90;;;;;;4409745;28;660398;-63
2023/09/18 00:03:48;;;;;;;15.07;6.83;;;15.10;99.90;;;;;;4385763;28;658907;-64
2023/09/18 00:06:35;;;;;;;15.23;7.13;;;15.00;99.90;;;;;;4414128;28;659855;-63
2023/09/18 00:09:24;;;;;;;9.70;6.40;;;15.00;99.90;;;;;;4400393;28;658778;-65
2023/09/18 00:12:11;;;;;;;12.27;6.60;;;15.00;99.90;;;;;;4409015;28;657482;-65
2023/09/18 00:14:58;;;;;;;8.70;6.37;;;14.90;99.90;;;;;;4386519;28;659167;-64
2023/09/18 00:17:45;;;;;;;11.27;6.83;;;14.90;99.90;;;;;;4410286;28;658429;-63
2023/09/18 00:20:32;;;;;;;12.70;6.93;;;14.90;99.90;;;;;;4396823;28;660266;-64
2023/09/18 00:23:20;;;;;;;8.77;6.57;;;14.90;99.90;;;;;;4414803;28;659074;-63
2023/09/18 00:26:09;;;;;;;8.83;6.43;;;14.80;99.90;;;;;;4408559;28;657553;-65
2023/09/18 00:28:56;;;;;;;14.23;6.73;;;14.80;99.90;;;;;;4413915;28;657344;-63
2023/09/18 00:31:43;;;;;;;9.97;6.70;;;14.80;99.90;;;;;;4389606;28;658937;-63
2023/09/18 00:34:31;;;;;;;9.83;7.10;;;14.80;99.90;;;;;;4408088;28;657652;-63
2023/09/18 00:37:19;;;;;;;12.87;7.23;;;14.70;99.90;;;;;;4389903;28;657460;-64
2023/09/18 00:40:07;;;;;;;12.87;7.00;;;14.70;99.90;;;;;;4410030;28;661303;-63
2023/09/18 00:42:56;;;;;;;9.67;7.40;;;14.70;99.90;;;;;;4389914;28;660019;-63
2023/09/18 00:45:45;;;;;;;12.37;6.90;;;14.60;99.90;;;;;;4387516;28;657680;-63
2023/09/18 00:48:32;;;;;;;8.60;6.57;;;14.70;99.90;;;;;;4408727;28;660010;-64
2023/09/18 00:51:20;;;;;;;10.47;6.60;;;14.60;99.90;;;;;;4411872;28;658877;-63
2023/09/18 00:54:07;;;;;;;11.87;6.93;;;14.60;99.90;;;;;;4414999;28;658468;-65
2023/09/18 00:56:54;;;;;;;10.50;7.10;;;14.60;99.90;;;;;;4388985;28;660033;-63
2023/09/18 00:59:43;;;;;;;9.60;6.83;;;14.60;99.90;;;;;;4406604;28;658763;-63
2023/09/18 01:02:30;;;;;;;12.40;7.73;;;14.60;99.90;;;;;;4387195;28;658143;-63
2023/09/18 01:05:19;;;;;;;10.10;7.10;;;14.60;99.90;;;;;;4392545;28;658893;-65
2023/09/18 01:08:07;;;;;;;12.50;7.60;;;14.60;99.90;;;;;;4410762;28;658477;-63
2023/09/18 01:10:59;;;;;;;9.73;7.87;;;14.60;99.90;;;;;;4386027;28;659071;-63
2023/09/18 01:13:48;;;;;;;11.50;7.30;;;14.60;99.90;;;;;;4385234;28;658415;-63
2023/09/18 01:16:55;;;;;;;11.13;7.43;;;14.70;99.90;;;;;;4385468;28;660298;-64
2023/09/18 01:19:44;;;;;;;12.43;7.83;;;14.70;99.90;;;;;;4378681;28;658885;-65
2023/09/18 01:22:33;;;;;;;9.40;7.43;;;14.70;99.90;;;;;;4413477;28;658190;-63
2023/09/18 01:25:20;;;;;;;11.73;7.87;;;14.80;99.90;;;;;;4391170;28;657798;-63
2023/09/18 01:28:07;;;;;;;11.43;7.90;;;14.80;99.90;;;;;;4391216;28;660115;-65
2023/09/18 01:30:55;;;;;;;13.97;8.70;;;14.80;99.90;;;;;;4412617;28;659028;-63
2023/09/18 01:33:42;;;;;;;16.07;8.67;;;14.80;99.90;;;;;;4406593;28;658614;-64
2023/09/18 01:36:29;;;;;;;11.23;8.17;;;14.80;99.90;;;;;;4383093;28;659775;-64
2023/09/18 01:39:18;;;;;;;11.63;7.90;;;14.80;99.90;;;;;;4409206;28;658769;-63
2023/09/18 01:42:06;;;;;;;12.43;8.47;;;14.80;99.90;;;;;;4390494;28;660148;-64
2023/09/18 01:44:53;;;;;;;12.97;8.37;;;14.90;99.90;;;;;;4386860;28;658874;-63
2023/09/18 01:47:40;;;;;;;13.33;9.77;;;14.80;99.90;;;;;;4412333;28;659085;-65
2023/09/18 01:50:27;;;;;;;9.50;7.70;;;14.90;99.90;;;;;;4393806;28;658557;-65
2023/09/18 01:53:14;;;;;;;11.93;8.67;;;14.90;99.90;;;;;;4418073;28;657919;-63
2023/09/18 01:56:02;;;;;;;13.77;8.27;;;14.90;99.90;;;;;;4414931;28;659529;-63
2023/09/18 01:58:50;;;;;;;12.30;9.20;;;14.90;99.90;;;;;;4390875;28;659057;-63
2023/09/18 02:01:38;;;;;;;12.13;8.47;;;15.00;99.90;;;;;;4411998;28;658860;-63
2023/09/18 02:04:25;;;;;;;15.37;9.73;;;15.00;99.90;;;;;;4389216;28;659310;-63
2023/09/18 02:07:13;;;;;;;15.20;10.20;;;15.00;99.90;;;;;;4372217;28;659081;-64
2023/09/18 02:10:00;;;;;;;10.50;8.57;;;15.00;99.90;;;;;;4390511;28;659945;-63
2023/09/18 02:12:49;;;;;;;16.20;9.27;;;15.10;99.90;;;;;;4375550;28;658981;-65
2023/09/18 02:15:38;;;;;;;12.77;8.80;;;15.10;99.90;;;;;;4384935;28;659169;-63
2023/09/18 02:18:25;;;;;;;11.53;9.33;;;15.20;99.90;;;;;;4363516;28;659585;-63
2023/09/18 02:21:13;;;;;;;14.97;10.20;;;15.20;99.90;;;;;;4374417;28;659060;-64
2023/09/18 02:24:00;;;;;;;15.50;9.77;;;15.20;99.90;;;;;;4390439;28;660678;-63
2023/09/18 02:26:47;;;;;;;11.90;9.50;;;15.20;99.90;;;;;;4392645;28;658191;-65
2023/09/18 02:29:36;;;;;;;14.93;11.03;;;15.30;99.90;;;;;;4394727;28;658474;-63
2023/09/18 02:32:23;;;;;;;11.50;9.90;;;15.30;99.90;;;;;;4367536;28;659633;-63
2023/09/18 02:35:11;;;;;;;17.57;10.80;;;15.30;99.90;;;;;;4395559;28;659240;-63
2023/09/18 02:37:59;;;;;;;16.27;11.53;;;15.30;99.90;;;;;;4376990;28;659636;-63
2023/09/18 02:40:47;;;;;;;16.47;10.20;;;15.30;99.90;;;;;;4393238;28;659977;-63
2023/09/18 02:43:34;;;;;;;13.33;10.13;;;15.20;99.90;;;;;;4364886;28;660153;-63
2023/09/18 02:46:22;;;;;;;16.03;11.30;;;15.20;99.90;;;;;;4391211;28;659377;-63
2023/09/18 02:49:10;;;;;;;16.93;11.93;;;15.20;99.90;;;;;;4372078;28;660732;-63
2023/09/18 02:51:57;;;;;;;15.10;11.40;;;15.20;99.90;;;;;;4390028;28;660526;-65
2023/09/18 02:54:45;;;;;;;17.03;11.53;;;15.10;99.90;;;;;;4392827;28;660462;-63
2023/09/18 02:57:32;;;;;;;12.93;10.40;;;15.10;99.90;;;;;;4386494;28;660131;-63
2023/09/18 03:00:19;;;;;;;17.13;11.00;;;15.00;99.90;;;;;;4376385;28;660414;-63
2023/09/18 03:03:08;;;;;;;17.43;10.33;;;15.00;99.90;;;;;;4399710;28;659831;-63
2023/09/18 03:06:00;;;;;;;14.93;11.23;;;15.00;99.90;;;;;;4381154;28;659910;-63
2023/09/18 03:08:48;;;;;;;18.10;10.93;;;15.00;99.90;;;;;;4361577;28;660078;-63
2023/09/18 03:11:35;;;;;;;14.80;11.10;;;14.90;99.90;;;;;;4402805;28;661168;-63
2023/09/18 03:14:22;;;;;;;14.37;11.60;;;14.90;99.90;;;;;;4391750;28;660527;-65
2023/09/18 03:17:10;;;;;;;18.63;12.53;;;14.90;99.90;;;;;;4399655;28;660709;-63
2023/09/18 03:19:59;;;;;;;14.97;11.23;;;14.90;99.90;;;;;;4397525;28;660229;-65
2023/09/18 03:22:46;;;;;;;14.63;11.73;;;14.90;99.90;;;;;;4399411;28;659611;-63
2023/09/18 03:25:33;;;;;;;14.23;11.20;;;14.90;99.90;;;;;;4376434;28;659975;-63
2023/09/18 03:28:20;;;;;;;18.00;12.63;;;14.90;99.90;;;;;;4403688;28;660803;-63
2023/09/18 03:31:08;;;;;;;16.40;11.83;;;14.90;99.90;;;;;;4385652;28;659532;-64
2023/09/18 03:33:55;;;;;;;13.97;11.00;;;14.90;99.90;;;;;;4399612;28;660644;-63
2023/09/18 03:36:44;;;;;;;18.80;12.57;;;14.90;99.90;;;;;;4394342;28;659918;-65
2023/09/18 03:39:31;;;;;;;15.10;11.90;;;14.90;99.90;;;;;;4393444;28;659463;-63
2023/09/18 03:42:18;;;;;;;15.97;12.53;;;14.90;99.90;;;;;;4386747;28;660774;-64
2023/09/18 03:45:07;;;;;;;16.73;12.37;;;14.80;99.90;;;;;;4401871;28;660737;-64
2023/09/18 03:47:54;;;;;;;17.33;12.30;;;14.80;99.90;;;;;;4381404;28;661294;-63
2023/09/18 03:50:41;;;;;;;16.93;12.33;;;14.90;99.90;;;;;;4406638;28;660130;-65
2023/09/18 03:53:30;;;;;;;18.40;13.37;;;14.80;99.90;;;;;;4380683;28;659821;-63
2023/09/18 03:56:17;;;;;;;19.03;13.70;;;14.80;99.90;;;;;;4395558;28;659922;-66
2023/09/18 03:59:05;;;;;;;17.43;13.57;;;14.80;99.90;;;;;;4408143;28;659874;-63
2023/09/18 04:01:52;;;;;;;19.37;13.17;;;14.80;99.90;;;;;;4398525;28;659895;-65
2023/09/18 04:04:40;;;;;;;20.47;13.63;;;14.70;99.90;;;;;;4400114;28;660858;-63
2023/09/18 04:07:27;;;;;;;19.10;13.30;;;14.70;99.90;;;;;;4406024;28;660164;-63
2023/09/18 04:10:19;;;;;;;17.97;13.27;;;14.70;99.90;;;;;;4388645;28;660158;-63
2023/09/18 04:13:06;;;;;;;19.07;14.20;;;14.70;99.90;;;;;;4386673;28;660292;-63
2023/09/18 04:15:56;;;;;;;18.43;13.60;;;14.60;99.90;;;;;;4399448;28;659677;-65
2023/09/18 04:18:44;;;;;;;20.57;13.60;;;14.70;99.90;;;;;;4386817;28;659671;-64
2023/09/18 04:21:31;;;;;;;16.00;13.10;;;14.60;99.90;;;;;;4413942;28;662509;-63
2023/09/18 04:24:18;;;;;;;17.63;13.90;;;14.60;99.90;;;;;;4390290;28;659830;-63
2023/09/18 04:27:07;;;;;;;18.07;13.70;;;14.60;99.90;;;;;;4412680;28;659888;-63
2023/09/18 04:29:54;;;;;;;18.23;13.97;;;14.60;99.90;;;;;;4392548;28;659625;-65
2023/09/18 04:32:41;;;;;;;20.20;14.17;;;14.60;99.90;;;;;;4405590;28;659485;-65
2023/09/18 04:35:31;;;;;;;21.57;14.70;;;14.60;99.90;;;;;;4389759;28;659901;-63
2023/09/18 04:38:19;;;;;;;20.07;14.10;;;14.60;99.90;;;;;;4391064;28;659488;-64
2023/09/18 04:41:07;;;;;;;18.10;14.07;;;14.70;99.90;;;;;;4408258;28;660126;-63
2023/09/18 04:43:56;;;;;;;17.30;13.40;;;14.70;99.90;;;;;;4383946;28;660741;-63
2023/09/18 04:46:43;;;;;;;21.87;14.07;;;14.70;99.90;;;;;;4385288;28;659615;-63
2023/09/18 04:49:30;;;;;;;18.70;14.70;;;14.70;99.90;;;;;;4413578;28;660655;-63
2023/09/18 04:52:17;;;;;;;20.80;14.83;;;14.70;99.90;;;;;;4394607;28;660220;-65
2023/09/18 04:55:06;;;;;;;20.63;14.57;;;14.80;99.90;;;;;;4421897;28;660979;-63
2023/09/18 04:57:53;;;;;;;21.73;14.63;;;14.90;99.90;;;;;;4389178;28;659714;-62
2023/09/18 05:00:42;;;;;;;19.37;14.43;;;14.90;99.90;;;;;;4406189;28;660232;-63
2023/09/18 05:03:29;;;;;;;18.20;13.20;;;15.00;99.90;;;;;;4385167;28;661284;-63
2023/09/18 05:06:17;;;;;;;17.10;13.33;;;15.00;99.90;;;;;;4412389;28;662609;-63
2023/09/18 05:09:05;;;;;;;18.83;14.07;;;15.10;99.90;;;;;;4394357;28;661190;-64
2023/09/18 05:11:52;;;;;;;18.80;14.23;;;15.20;99.90;;;;;;4400051;28;659982;-66
2023/09/18 05:14:40;;;;;;;19.73;14.03;;;15.30;99.90;;;;;;4413509;28;660150;-66
2023/09/18 05:17:46;;;;;;;19.23;14.13;;;15.30;99.90;;;;;;4405915;28;659537;-67
2023/09/18 05:20:34;;;;;;;18.40;13.53;;;15.50;99.90;;;;;;4363467;28;659914;-66
2023/09/18 05:23:21;;;;;;;16.37;13.03;;;15.60;99.90;;;;;;4413294;28;660072;-66
2023/09/18 05:26:09;;;;;;;18.07;13.30;;;15.70;99.90;;;;;;4381412;28;659382;-66
2023/09/18 05:28:57;;;;;;;18.97;13.47;;;15.80;99.90;;;;;;4406536;28;660666;-66
2023/09/18 05:31:45;;;;;;;16.53;13.03;;;15.90;99.90;;;;;;4385027;28;660138;-66
2023/09/18 05:34:34;;;;;;;14.87;12.10;;;16.10;99.90;;;;;;4399836;28;659778;-66
2023/09/18 05:37:21;;;;;;;16.63;12.47;;;16.20;99.90;;;;;;4400043;28;659849;-66
2023/09/18 05:40:09;;;;;;;20.83;12.50;;;16.30;99.90;;;;;;4389105;28;660498;-66
2023/09/18 05:42:57;;;;;;;18.00;12.77;;;16.50;99.90;;;;;;4408720;28;661555;-67
2023/09/18 05:45:44;;;;;;;17.47;12.10;;;16.60;99.90;;;;;;4387652;28;660521;-66
2023/09/18 05:48:31;;;;;;;17.03;12.13;;;16.80;99.90;;;;;;4409548;28;660348;-66
2023/09/18 05:51:20;;;;;;;15.13;11.80;;;16.90;99.90;;;;;;4389786;28;660029;-66
2023/09/18 05:54:07;;;;;;;16.13;11.80;;;17.10;99.90;;;;;;4409659;28;661394;-66
2023/09/18 05:56:54;;;;;;;15.13;12.50;;;17.20;99.90;;;;;;4381862;28;660625;-66
2023/09/18 05:59:43;;;;;;;15.90;12.20;;;17.40;99.90;;;;;;4408409;28;659957;-66
2023/09/18 06:02:31;;;;;;;20.70;12.10;;;17.50;99.90;;;;;;4386720;28;660185;-67
2023/09/18 06:05:21;;;;;;;16.30;11.60;;;17.70;99.90;;;;;;4389288;28;659599;-66
2023/09/18 06:08:09;;;;;;;16.27;10.93;;;17.90;99.90;;;;;;4393582;28;659670;-68
2023/09/18 06:10:57;;;;;;;15.10;11.03;;;18.00;99.90;;;;;;4407426;28;660380;-66
2023/09/18 06:13:44;;;;;;;14.53;11.00;;;18.20;99.90;;;;;;4387889;28;659989;-66
2023/09/18 06:16:31;;;;;;;12.57;9.77;;;18.30;99.90;;;;;;4408549;28;659752;-66
2023/09/18 06:19:18;;;;;;;16.00;9.90;;;18.40;99.90;;;;;;4390543;28;658584;-66
2023/09/18 06:22:07;;;;;;;12.33;9.67;;;18.50;99.90;;;;;;4410773;28;659750;-66
2023/09/18 06:24:55;;;;;;;12.93;10.03;;;18.50;99.90;;;;;;4383538;28;659741;-66
2023/09/18 06:27:43;;;;;;;11.67;9.97;;;18.70;99.90;;;;;;4384746;28;659858;-67
2023/09/18 06:30:30;;;;;;;15.90;9.93;;;18.70;99.90;;;;;;4410742;28;659705;-66
2023/09/18 06:33:18;;;;;;;14.80;9.87;;;18.90;99.90;;;;;;4387459;28;658407;-66
2023/09/18 06:36:05;;;;;;;12.33;9.93;;;19.10;99.90;;;;;;4405301;28;659483;-67
2023/09/18 06:38:53;;;;;;;13.70;10.00;;;19.20;99.90;;;;;;4388341;28;658993;-67
2023/09/18 06:41:41;;;;;;;12.87;10.40;;;19.30;99.90;;;;;;4414917;28;660784;-67
2023/09/18 06:44:28;;;;;;;14.30;10.47;;;19.40;99.90;;;;;;4394315;28;659800;-66
2023/09/18 06:47:16;;;;;;;12.87;9.53;;;19.50;99.90;;;;;;4408709;28;659635;-66
2023/09/18 06:50:04;;;;;;;13.40;10.00;;;19.60;99.90;;;;;;4389137;28;658452;-66
2023/09/18 06:52:52;;;;;;;14.50;9.83;;;19.80;99.90;;;;;;4409908;28;660487;-67
2023/09/18 06:55:39;;;;;;;12.57;10.10;;;20.00;99.90;;;;;;4387062;28;658918;-67
2023/09/18 06:58:27;;;;;;;15.30;10.57;;;20.20;99.90;;;;;;4404000;28;659765;-66
2023/09/18 07:01:15;;;;;;;12.90;9.73;;;20.30;99.90;;;;;;4382659;28;660179;-66
2023/09/18 07:04:04;;;;;;;12.27;10.20;;;20.50;99.90;;;;;;4397709;28;658457;-66
2023/09/18 07:06:53;;;;;;;15.03;9.47;;;20.70;99.90;;;;;;4410503;28;660285;-66
2023/09/18 07:09:41;;;;;;;11.67;9.53;;;20.90;99.90;;;;;;4383101;28;660865;-66
2023/09/18 07:12:28;;;;;;;19.52;10.15;;;21.10;99.90;;;;;;4385056;28;658465;-66
2023/09/18 07:15:17;;;;;;;14.00;10.27;;;21.20;99.90;;;;;;4405521;28;660249;-67
2023/09/18 07:18:05;;;;;;;11.93;9.73;;;21.30;99.90;;;;;;4385365;28;660302;-66
2023/09/18 07:20:52;;;;;;;12.53;9.50;;;21.40;99.90;;;;;;4393385;28;658590;-66
2023/09/18 07:23:41;;;;;;;14.53;9.73;;;21.60;99.90;;;;;;4408472;28;659944;-66
2023/09/18 07:26:28;;;;;;;11.10;9.57;;;21.70;99.90;;;;;;4387552;28;659238;-66
2023/09/18 07:29:15;;;;;;;13.67;10.40;;;21.70;99.90;;;;;;4406425;28;659144;-66
2023/09/18 07:32:05;;;;;;;12.63;9.50;;;21.90;99.90;;;;;;4395463;28;660394;-66
2023/09/18 07:34:52;;;;;;;11.60;9.40;;;22.00;99.90;;;;;;4406766;28;659467;-66
2023/09/18 07:37:39;;;;;;;14.57;9.63;;;22.20;99.90;;;;;;4388383;28;658992;-66
2023/09/18 07:40:26;;;;;;;15.47;9.87;;;22.30;99.90;;;;;;4404298;28;658152;-66
2023/09/18 07:43:13;;;;;;;11.27;8.83;;;22.40;99.90;;;;;;4391241;28;658226;-66
2023/09/18 07:46:02;;;;;;;13.67;9.90;;;22.70;99.90;;;;;;4411729;28;658814;-66
2023/09/18 07:48:50;;;;;;;14.30;9.00;;;22.90;99.90;;;;;;4387556;28;659243;-66
2023/09/18 07:51:37;;;;;;;13.32;8.75;;;23.00;99.90;;;;;;4394603;28;658802;-66
2023/09/18 07:54:25;;;;;;;11.45;8.75;;;23.20;99.90;;;;;;4415292;28;658935;-66
2023/09/18 07:57:13;;;;;;;15.80;9.18;;;23.30;99.90;;;;;;4412228;28;658834;-66
2023/09/18 08:00:06;;;;;;;13.07;9.45;;;23.30;99.90;;;;;;4389931;28;659345;-66
2023/09/18 08:02:58;;;;;;;15.93;9.07;;;23.50;99.90;;;;;;4361397;28;660509;-66
2023/09/18 08:05:47;;;;;;;10.52;8.65;;;23.70;99.90;;;;;;4382778;28;659828;-66
2023/09/18 08:08:36;;;;;;;11.35;8.75;;;23.80;99.90;;;;;;4387317;28;659695;-67
2023/09/18 08:11:23;;;;;;;12.30;9.15;;;24.00;99.90;;;;;;4393917;28;659038;-66
2023/09/18 08:14:11;;;;;;;14.65;9.25;;;24.20;99.90;;;;;;4412786;28;658716;-66
2023/09/18 08:16:59;;;;;;;10.75;8.65;;;24.50;99.90;;;;;;4386125;28;659286;-67
2023/09/18 08:19:47;;;;;;;17.02;8.88;;;24.70;99.90;;;;;;4405500;28;658882;-66
2023/09/18 08:22:37;;;;;;;10.27;8.98;;;24.70;99.90;;;;;;4389438;28;659462;-66
2023/09/18 08:25:24;;;;;;;12.93;9.10;;;24.90;99.90;;;;;;4394320;28;659137;-66
2023/09/18 08:28:11;;;;;;;11.73;8.23;;;25.00;99.90;;;;;;4415244;28;658838;-66
2023/09/18 08:30:59;;;;;;;10.63;9.02;;;25.10;99.90;;;;;;4383970;28;659402;-66
2023/09/18 08:33:46;;;;;;;16.45;9.40;;;25.40;99.90;;;;;;4401786;28;658369;-66
2023/09/18 08:36:33;;;;;;;10.65;8.57;;;25.60;99.90;;;;;;4388106;28;658703;-66
2023/09/18 08:39:22;;;;;;;12.25;8.88;;;25.60;99.90;;;;;;4408519;28;659740;-66
2023/09/18 08:42:09;;;;;;;12.68;8.63;;;25.70;99.90;;;;;;4388863;28;659253;-66
2023/09/18 08:44:56;;;;;;;13.50;8.32;;;25.70;99.90;;;;;;4411874;28;658476;-66
2023/09/18 08:47:44;;;;;;;14.00;9.32;;;25.80;99.90;;;;;;4393291;28;658945;-66
2023/09/18 08:50:31;;;;;;;11.38;8.30;;;26.00;99.90;;;;;;4412841;28;658195;-66
2023/09/18 08:53:18;;;;;;;12.73;8.98;;;26.30;99.90;;;;;;4399959;28;660618;-66
2023/09/18 08:56:07;;;;;;;12.38;8.80;;;26.40;99.90;;;;;;4420778;28;658956;-66
2023/09/18 08:58:54;;;;;;;13.70;9.15;;;26.60;99.90;;;;;;4386643;28;659621;-66
2023/09/18 09:01:41;;;;;;;15.55;9.15;;;26.90;99.90;;;;;;4407810;28;658295;-66
2023/09/18 09:04:28;;;;;;;12.07;9.77;;;26.90;99.90;;;;;;4388902;28;658633;-67
2023/09/18 09:07:15;;;;;;;13.95;9.60;;;26.90;99.90;;;;;;4409644;28;659725;-66
2023/09/18 09:10:03;;;;;;;15.90;10.00;;;27.20;99.90;;;;;;4397834;28;659221;-66
2023/09/18 09:12:54;;;;;;;12.27;8.88;;;27.00;99.90;;;;;;4406131;28;660075;-66
2023/09/18 09:15:46;;;;;;;14.57;9.55;;;27.30;99.90;;;;;;4387367;28;658985;-66
2023/09/18 09:18:34;;;;;;;13.98;9.10;;;27.40;99.90;;;;;;4365261;28;659945;-66
2023/09/18 09:21:21;;;;;;;15.82;8.75;;;27.50;99.90;;;;;;4413845;28;659533;-66
2023/09/18 09:24:08;;;;;;;12.32;9.73;;;27.80;99.90;;;;;;4398215;28;658679;-66
2023/09/18 09:26:58;;;;;;;11.88;9.05;;;27.90;98.60;;;;;;4411637;28;659301;-66
2023/09/18 09:30:02;;;;;;;16.52;9.00;;;28.00;99.90;;;;;;4394764;28;658580;-66
2023/09/18 09:32:52;;;;;;;12.10;9.30;;;28.10;81.90;;;;;;4383606;28;658887;-66
2023/09/18 09:35:41;;;;;;;10.87;8.60;;;28.20;91.10;;;;;;4391614;28;659615;-66
2023/09/18 09:38:33;;;;;;;12.15;8.80;;;28.10;70.80;;;;;;4388141;28;658501;-66
2023/09/18 09:41:21;;;;;;;11.80;9.10;;;28.20;76.30;;;;;;4391849;28;659166;-66
2023/09/18 09:44:09;;;;;;;12.73;8.90;;;28.40;71.60;;;;;;4394093;28;658571;-66
2023/09/18 09:46:57;;;;;;;9.77;8.77;;;28.50;76.20;;;;;;4404473;28;659489;-66
2023/09/18 09:49:48;;;;;;;17.38;9.55;;;28.40;64.50;;;;;;4392665;28;658688;-66
2023/09/18 09:52:35;;;;;;;12.07;8.82;;;28.60;70.10;;;;;;4388515;28;658928;-66
2023/09/18 09:55:24;;;;;;;14.82;9.13;;;28.70;64.90;;;;;;4395055;28;658810;-66
2023/09/18 09:58:13;;;;;;;12.63;9.15;;;28.90;66.10;;;;;;4414153;28;659153;-66
2023/09/18 10:01:05;;;;;;;12.53;8.93;;;29.00;66.30;;;;;;4383660;28;660146;-66
2023/09/18 10:03:54;;;;;;;11.07;9.00;;;28.80;63.30;;;;;;4366089;28;658997;-66
2023/09/18 10:06:43;;;;;;;10.05;8.95;;;29.00;65.00;;;;;;4408757;28;658112;-66
2023/09/18 10:09:30;;;;;;;10.63;8.57;;;29.10;65.30;;;;;;4382802;28;658893;-66
2023/09/18 10:12:20;;;;;;;13.25;8.52;;;29.30;61.50;;;;;;4395598;28;658796;-66
2023/09/18 10:15:09;;;;;;;11.48;8.55;;;29.40;61.60;;;;;;4404174;28;658601;-66
2023/09/18 10:17:56;;;;;;;11.10;9.27;;;29.40;64.50;;;;;;4414522;28;658431;-66
2023/09/18 10:20:45;;;;;;;12.50;8.60;;;29.50;63.70;;;;;;4380772;28;659342;-66
2023/09/18 10:23:39;;;;;;;16.95;8.95;;;29.50;60.70;;;;;;4389321;28;658842;-66
2023/09/18 10:26:28;;;;;;;10.65;9.20;;;29.50;62.00;;;;;;4382729;28;659147;-66
2023/09/18 10:29:18;;;;;;;13.00;9.20;;;29.70;60.90;;;;;;4385335;28;659632;-66
2023/09/18 10:32:08;;;;;;;12.68;9.13;;;29.70;59.30;;;;;;4384443;28;659050;-66
2023/09/18 10:34:55;;;;;;;10.63;8.52;;;29.00;65.50;;;;;;4404445;28;659154;-66
2023/09/18 10:37:44;;;;;;;14.30;9.50;;;29.40;59.90;;;;;;4399011;28;659420;-66
2023/09/18 10:40:31;;;;;;;10.23;8.23;;;29.60;58.70;;;;;;4409068;28;659146;-66
2023/09/18 10:43:19;;;;;;;11.75;8.60;;;29.60;57.90;;;;;;4390832;28;658518;-66
2023/09/18 10:46:06;;;;;;;13.43;8.57;;;29.60;58.40;;;;;;4409586;28;658632;-66
2023/09/18 10:48:53;;;;;;;12.73;8.65;;;29.80;60.20;;;;;;4390316;28;658514;-66
2023/09/18 10:51:42;;;;;;;12.90;9.13;;;29.60;57.10;;;;;;4410632;28;659567;-67
2023/09/18 10:54:31;;;;;;;11.15;8.45;;;29.30;63.30;;;;;;4388792;28;658557;-66
2023/09/18 10:57:18;;;;;;;10.93;8.23;;;29.40;62.30;;;;;;4387962;28;659016;-66
2023/09/18 11:00:13;;;;;;;15.15;8.48;;;29.60;59.20;;;;;;4412399;28;660104;-66
2023/09/18 11:03:11;;;;;;;10.30;8.00;;;30.10;58.90;;;;;;4377659;28;658695;-66
2023/09/18 11:06:05;;;;;;;11.10;8.05;;;30.40;56.10;;;;;;4368995;28;659141;-66
2023/09/18 11:08:54;;;;;;;11.38;8.57;;;30.70;54.00;;;;;;4375830;28;659820;-66
2023/09/18 11:11:42;;;;;;;9.38;7.82;;;30.60;57.20;;;;;;4408173;28;658621;-66
2023/09/18 11:14:42;;;;;;;9.43;7.70;;;30.40;53.70;;;;;;4390992;28;658632;-66
2023/09/18 11:17:34;;;;;;;8.73;7.72;;;30.00;55.60;;;;;;4391919;28;658006;-66
2023/09/18 11:20:24;;;;;;;10.50;7.63;;;30.30;56.20;;;;;;4389321;28;658100;-66
2023/09/18 11:23:17;;;;;;;13.20;7.33;;;30.50;53.10;;;;;;4392080;28;658784;-66
2023/09/18 11:26:08;;;;;;;9.03;7.10;;;30.20;52.00;;;;;;4369314;28;659784;-66
2023/09/18 11:28:57;;;;;;;8.87;6.93;;;30.10;51.90;;;;;;4393864;28;658549;-66
2023/09/18 11:31:45;;;;;;;9.68;7.15;;;30.40;52.40;;;;;;4388472;28;658350;-66
2023/09/18 11:34:34;;;;;;;13.45;6.82;;;30.70;50.20;;;;;;4394090;28;657675;-66
2023/09/18 11:37:22;;;;;;;9.13;6.82;;;30.30;52.40;;;;;;4410587;28;658771;-66
2023/09/18 11:40:30;;;;;;;9.53;7.10;;;30.30;54.30;;;;;;4389488;28;658321;-65
2023/09/18 11:43:25;;;;;;;8.82;6.85;;;30.40;52.80;;;;;;4369329;28;657738;-65
2023/09/18 11:46:15;;;;;;;7.50;6.45;;;30.60;52.10;;;;;;4375441;28;657592;-65
2023/09/18 11:49:05;;;;;;;12.00;7.07;;;30.90;52.40;;;;;;4410033;28;657705;-65
2023/09/18 11:51:53;;;;;;;10.20;6.80;;;31.30;49.10;;;;;;4393802;28;660443;-66
2023/09/18 11:54:41;;;;;;;9.32;6.90;;;31.00;47.90;;;;;;4414908;28;658961;-65
2023/09/18 11:57:28;;;;;;;8.00;6.70;;;30.00;52.90;;;;;;4392342;28;657843;-66
2023/09/18 12:00:25;;;;;;;10.80;6.40;;;30.40;50.50;;;;;;4409452;28;658826;-66
2023/09/18 12:03:24;;;;;;;8.20;6.53;;;30.20;51.30;;;;;;4382184;28;658578;-66
2023/09/18 12:06:13;;;;;;;7.13;6.43;;;30.90;51.20;;;;;;4392001;28;658095;-66
2023/09/18 12:09:00;;;;;;;11.10;6.90;;;30.10;50.50;;;;;;4381814;28;658939;-66
2023/09/18 12:11:48;;;;;;;10.18;6.40;;;29.90;50.70;;;;;;4406871;28;658864;-65
2023/09/18 12:14:37;;;;;;;7.93;6.18;;;29.90;50.10;;;;;;4407820;28;659287;-65
2023/09/18 12:17:24;;;;;;;9.40;6.45;;;29.10;51.50;;;;;;4391038;28;658093;-65
2023/09/18 12:20:19;;;;;;;6.82;6.13;;;29.00;52.70;;;;;;4413933;28;658705;-66
2023/09/18 12:23:06;;;;;;;11.45;6.78;;;29.60;51.80;;;;;;4386093;28;658633;-66
2023/09/18 12:25:59;;;;;;;9.00;6.38;;;29.80;52.30;;;;;;4390407;28;658154;-65
2023/09/18 12:28:46;;;;;;;8.02;6.60;;;29.40;51.00;;;;;;4388139;28;657415;-66
2023/09/18 12:31:33;;;;;;;7.45;6.30;;;29.60;49.10;;;;;;4392714;28;657902;-66
2023/09/18 12:34:23;;;;;;;7.05;6.35;;;29.50;50.80;;;;;;4415161;28;658317;-66
2023/09/18 12:37:11;;;;;;;7.60;6.80;;;29.40;51.20;;;;;;4389775;28;659422;-66
2023/09/18 12:39:59;;;;;;;8.73;7.07;;;29.70;54.40;;;;;;4381265;28;659288;-66
2023/09/18 12:42:46;;;;;;;7.03;6.32;;;30.00;50.30;;;;;;4404604;28;658411;-66
2023/09/18 12:45:33;;;;;;;10.30;6.97;;;30.20;48.90;;;;;;4385506;28;657623;-66
2023/09/18 12:48:20;;;;;;;6.68;5.93;;;30.50;49.50;;;;;;4409393;28;659098;-66
2023/09/18 12:51:09;;;;;;;9.55;6.38;;;30.60;50.00;;;;;;4392759;28;658498;-66
2023/09/18 12:54:06;;;;;;;7.90;6.57;;;30.80;49.60;;;;;;4410051;28;658322;-66
2023/09/18 12:56:53;;;;;;;11.02;6.47;;;31.00;47.90;;;;;;4368816;28;658250;-66
2023/09/18 12:59:40;;;;;;;12.20;6.50;;;31.00;48.50;;;;;;4419103;28;659437;-66
2023/09/18 13:02:28;;;;;;;7.85;6.72;;;30.60;47.60;;;;;;4395541;28;658417;-66
2023/09/18 13:05:25;;;;;;;8.27;6.28;;;30.50;50.10;;;;;;4414168;28;657996;-66
2023/09/18 13:08:12;;;;;;;8.43;6.85;;;30.50;49.70;;;;;;4373836;28;657979;-66
2023/09/18 13:11:02;;;;;;;8.57;6.65;;;30.10;49.90;;;;;;4416122;28;658651;-66
2023/09/18 13:13:58;;;;;;;7.33;6.23;;;30.30;51.90;;;;;;4388479;28;658274;-66
2023/09/18 13:16:45;;;;;;;9.00;6.55;;;30.00;51.10;;;;;;4386600;28;657817;-65
2023/09/18 13:19:32;;;;;;;9.80;7.00;;;29.70;51.20;;;;;;4390359;28;657945;-65
2023/09/18 13:22:25;;;;;;;8.55;6.70;;;29.60;51.00;;;;;;4412066;28;658777;-65
2023/09/18 13:25:12;;;;;;;7.47;6.45;;;29.40;52.20;;;;;;4402104;28;657935;-65
2023/09/18 13:28:01;;;;;;;8.00;6.50;;;29.10;52.90;;;;;;4410444;28;659792;-65
2023/09/18 13:30:49;;;;;;;11.03;7.03;;;29.30;52.40;;;;;;4384981;28;659629;-65
2023/09/18 13:33:39;;;;;;;8.70;6.90;;;29.60;52.20;;;;;;4405654;28;659259;-65
2023/09/18 13:36:26;;;;;;;8.15;6.72;;;29.90;53.30;;;;;;4383972;28;657860;-64
2023/09/18 13:39:16;;;;;;;9.27;6.35;;;30.20;52.00;;;;;;4391289;28;657457;-64
2023/09/18 13:42:04;;;;;;;7.73;6.33;;;29.30;52.50;;;;;;4388987;28;657755;-64
2023/09/18 13:44:53;;;;;;;10.23;6.60;;;29.60;51.70;;;;;;4413423;28;658367;-65
2023/09/18 13:47:40;;;;;;;8.23;6.20;;;30.00;51.90;;;;;;4392260;28;659560;-65
2023/09/18 13:50:28;;;;;;;9.95;6.57;;;30.00;50.20;;;;;;4393235;28;658112;-65
2023/09/18 13:53:15;;;;;;;8.23;6.28;;;30.40;50.90;;;;;;4413967;28;658283;-65
2023/09/18 13:56:03;;;;;;;9.20;6.15;;;30.70;49.30;;;;;;4390532;28;657938;-65
2023/09/18 13:58:51;;;;;;;7.63;5.95;;;30.70;49.70;;;;;;4415124;28;658935;-65
2023/09/18 14:01:39;;;;;;;9.88;6.20;;;30.80;48.10;;;;;;4396040;28;657926;-65
2023/09/18 14:04:28;;;;;;;8.10;6.75;;;30.20;49.20;;;;;;4415493;28;656850;-65
2023/09/18 14:07:15;;;;;;;7.53;5.97;;;29.80;52.80;;;;;;4368641;28;658818;-65
2023/09/18 14:10:03;;;;;;;8.20;6.18;;;30.20;49.50;;;;;;4372338;28;657750;-65
2023/09/18 14:12:51;;;;;;;10.23;6.40;;;30.40;49.70;;;;;;4392949;28;657297;-65